Terminal Aerodrome Forecast
Issued by NWS Spokane, WA

Home | Current Version | Previous Version | Text Only | Print | Product List | Glossary On
Versions: 1 2 3 4 5 6 7 8 9 10 11 12 13 14 15 16 17 18 19 20 21 22 23 24 25 26 27 28 29 30 31 32 33 34 35 36 37 38 39 40 41 42 43 44 45 46 47 48 49 50
000
FTUS46 KOTX 232330
TAFGEG
TAF
KGEG 232330Z 2400/2424 23021G28KT P6SM VCSH FEW014 SCT060 BKN120
     FM240200 23012KT P6SM SCT060
     FM241100 20005KT P6SM VCFG OVC003
     FM241500 13003KT 1 1/2SM BR OVC002
     FM242000 11005KT 4SM BR FEW002 BKN007
     FM242200 20010KT P6SM SCT010 SCT080=

USA.gov is the U.S. government's official web portal to all federal, state and local government web resources and services.